Tiempo atmosférico en la estación meteorológica de La Oliva, Las Palmas (217 m.)



Fecha
DESCASC
Temp. máxima en grados centígrados (hora)
DESCASC
Temp. mínima en grados centígrados (hora)
DESCASC
Temp. media en grados centígrados
DESCASC
Racha de viento máxima en m/sg (hora)
DESCASC
Velocidad máxima media en intervalos de 10 minutos(hora)
DESCASC
Precipitaciones diarias en mm
DESCASC
Precipitaciones de 00:00 a 06:00 en mm
DESCASC
Precipitaciones de 06:00 a 12:00 en mm
DESCASC
Precipitaciones de 12:00 a 18:00 en mm
DESCASC
Precipitaciones de 18:00 a 24:00 en mm
DESCASC
26-03-2020 20.9 (13:40) 10.2 (07:20) 15.5 8.89 (13:40) 5.28 (16:20) 0 0 0 0 0
25-03-2020 21 (15:10) 12.9 (07:20) 16.9 8.61 (16:30) 4.44 (15:20) 0 0 0 0 0
24-03-2020 20.1 (14:30) 13.1 (04:50) 16.6 12.5 (12:10) 7.22 (15:50) 0 0 0 0 0
23-03-2020 17.3 (14:10) 10.9 (04:30) 14.1 12.22 (16:00) 7.22 (12:50) 3.6 3.6 0 0 0
22-03-2020 19.6 (13:50) 12.6 (03:50) 16.1 13.06 (18:00) 8.89 (18:00) 3.6 0 0 0.6 3
21-03-2020 18.6 (14:40) 13.7 (00:00) 16.2 11.39 (16:00) 5.83 (14:40) 0 0 0 0 0
20-03-2020 19.6 (14:30) 14.4 (00:00) 17 10.28 (12:40) 5.28 (16:30) 0.2 0 0 0 0.2
19-03-2020 19.6 (14:50) 13.9 (00:00) 16.8 11.67 (15:50) 6.94 (16:00) 7.6 7.6 0 0 0
18-03-2020 18.5 (15:00) 12.5 (00:00) 15.5 12.78 (20:50) 7.5 (20:40) 0.8 0.2 0 0.2 0.4
17-03-2020 18 (15:00) 12.6 (00:00) 15.3 11.67 (16:20) 6.67 (12:30) 0 0 0 0 0
16-03-2020 19.7 (14:50) 14.7 (00:00) 17.2 12.5 (15:30) 7.22 (15:50) 0 0 0 0 0
15-03-2020 20 (13:50) 13.6 (00:00) 16.8 11.11 (18:00) 5.56 (14:50) 0 0 0 0 0
14-03-2020 20.4 (13:10) 12.9 (00:00) 16.6 9.44 (11:20) 5.56 (10:10) 0 0 0 0 0
13-03-2020 20.2 (12:40) 13.9 (07:20) 17.1 8.61 (02:30) 5.28 (03:40) 0 0 0 0 0
12-03-2020 25.5 (13:50) 15.4 (00:00) 20.4 10 (04:00) 6.67 (04:00) 0 0 0 0 0
11-03-2020 28.4 (14:50) 14 (00:00) 21.2 10.83 (14:40) 7.22 (08:30) 0 0 0 0 0
10-03-2020 23.5 (14:10) 14.4 (00:00) 18.9 11.67 (01:20) 8.33 (01:20) 0 0 0 0 0
09-03-2020 23.9 (13:20) 14.7 (00:00) 19.3 12.5 (02:10) 7.78 (01:50) 0 0 0 0 0
08-03-2020 24.4 (17:10) 15.2 (00:00) 19.8 11.94 (11:20) 7.5 (10:50) 0 0 0 0 0
07-03-2020 21.2 (15:40) 13.1 (00:00) 17.2 10.28 (22:50) 6.11 (12:00) 0 0 0 0 0
06-03-2020 20.1 (15:10) 14.5 (00:00) 17.3 14.72 (11:10) 8.89 (11:30) 0.2 0.2 0 0 0
05-03-2020 20.7 (13:20) 14.6 (00:00) 17.7 11.39 (22:40) 7.22 (21:40) 0 0 0 0 0
04-03-2020 25.1 (12:10) 15.2 (00:00) 20.2 8.61 (02:20) 6.39 (03:00) 0 0 0 0 0
03-03-2020 22.3 (16:20) 12.8 (00:00) 17.5 7.78 (13:10) 5.28 (06:30) 0 0 0 0 0
02-03-2020 20.8 (14:30) 15.2 (00:00) 18 10 (17:20) 5.56 (17:40) 0 0 0 0 0
01-03-2020 21.3 (14:50) 13.8 (00:00) 17.5 8.61 (18:00) 4.72 (18:00) 0 0 0 0 0
29-02-2020 20 (13:50) 12.5 (00:00) 16.3 7.78 (12:30) 4.72 (10:20) 0 0 0 0 0
28-02-2020 21.2 (13:50) 10.6 (00:00) 15.9 7.5 (14:20) 4.44 (14:10) 0 0 0 0 0

Gráficas

Temp. máximas Temp. mínimas Temp. medias Precipitaciones Rachas de viento máximas Velocidades máximas media en intervalos de 10 minutos

Datos horarios

Fecha y hora oficial Temperatura (ºC) Velocidad del viento (km/h) Dirección del viento Racha (km/h) Dirección de racha Precipitación (mm) Presión (hPa) Tendencia (hPa) Humedad (%)
2020-03-28 23:00:00 15.2 5 Norte 12 Nordeste 0 -- -- 78
2020-03-28 22:00:00 15.7 7 Norte 14 Norte 0 -- -- 78
2020-03-28 21:00:00 16 9 Norte 16 Noroeste 0 -- -- 76
2020-03-28 20:00:00 16.4 8 Norte 19 Norte 0 -- -- 75
2020-03-28 19:00:00 17.5 10 Norte 23 Norte 0 -- -- 66
2020-03-28 18:00:00 19.6 13 Norte 26 Noroeste 0 -- -- 60
2020-03-28 17:00:00 20.1 13 Norte 31 Noroeste 0 -- -- 60
2020-03-28 16:00:00 20.2 10 Norte 27 Norte 0 -- -- 56
2020-03-28 15:00:00 19.8 13 Noroeste 27 Noroeste 0 -- -- 57
2020-03-28 14:00:00 20.1 13 Norte 28 Noroeste 0 -- -- 58
2020-03-28 13:00:00 19.6 14 Noroeste 28 Norte 0 -- -- 59
2020-03-28 12:00:00 19.6 12 Noroeste 22 Noroeste 0 -- -- 58
2020-03-28 11:00:00 18.7 8 Noroeste 19 Noroeste 0 -- -- 63
2020-03-28 10:00:00 17.9 10 Norte 20 Norte 0 -- -- 64
2020-03-28 09:00:00 16.9 6 Noroeste 10 Noroeste 0 -- -- 72
2020-03-28 08:00:00 13.9 2 Oeste 6 Oeste 0 -- -- 89
2020-03-28 07:00:00 12.8 3 Oeste 10 Oeste 0 -- -- 89
2020-03-28 06:00:00 13.3 3 Oeste 6 Oeste 0 -- -- 87
2020-03-28 05:00:00 12.9 0 Calma 3 Sur 0 -- -- 84
2020-03-28 04:00:00 13.1 0 Calma 9 Nordeste 0 -- -- 83
2020-03-28 03:00:00 12.8 4 Este 6 Nordeste 0 -- -- 84
2020-03-28 02:00:00 12 3 Sur 5 Sur 0 -- -- 83
2020-03-28 01:00:00 12.9 0 Calma 4 Noroeste 0 -- -- 84
2020-03-28 00:00:00 13 4 Oeste 5 Sudoeste 0 -- -- 85
2020-03-27 23:00:00 13.6 3 Oeste 6 Oeste 0 -- -- 83
2020-03-27 22:00:00 14.2 4 Oeste 8 Oeste 0 -- -- 81
2020-03-27 21:00:00 14.6 5 Noroeste 9 Noroeste 0 -- -- 80
2020-03-27 20:00:00 15.5 6 Noroeste 18 Noroeste 0 -- -- 77
2020-03-27 19:00:00 17 11 Noroeste 23 Noroeste 0 -- -- 71
2020-03-27 18:00:00 18.3 16 Noroeste 28 Oeste 0 -- -- 66
2020-03-27 17:00:00 19.4 17 Oeste 30 Noroeste 0 -- -- 60
2020-03-27 16:00:00 20.3 18 Noroeste 30 Oeste 0 -- -- 55
2020-03-27 15:00:00 20.5 17 Noroeste 31 Noroeste 0 -- -- 52
2020-03-27 14:00:00 20.6 19 Noroeste 33 Oeste 0 -- -- 52
2020-03-27 13:00:00 20.7 17 Noroeste 31 Noroeste 0 -- -- 52
2020-03-27 12:00:00 19.6 19 Noroeste 29 Oeste 0 -- -- 57
2020-03-27 11:00:00 19.5 19 Noroeste 31 Noroeste 0 -- -- 57
2020-03-27 10:00:00 17.9 18 Noroeste 29 Noroeste 0 -- -- 61
2020-03-27 09:00:00 17.1 12 Noroeste 22 Oeste 0 -- -- 66
2020-03-27 08:00:00 14.6 12 Noroeste 18 Noroeste 0 -- -- 79
2020-03-27 07:00:00 12.4 10 Oeste 15 Oeste 0 -- -- 86
2020-03-27 06:00:00 12.3 7 Noroeste 9 Oeste 0 -- -- 85
2020-03-27 05:00:00 12.8 5 Noroeste 9 Noroeste 0 -- -- 84
2020-03-27 04:00:00 12.8 6 Noroeste 9 Oeste 0 -- -- 86
2020-03-27 03:00:00 13 6 Oeste 8 Oeste 0 -- -- 85
2020-03-27 02:00:00 13.5 3 Noroeste 5 Noroeste 0 -- -- 85
2020-03-27 01:00:00 12.8 3 Oeste 4 Oeste 0 -- -- 83
2020-03-27 00:00:00 13.3 3 Noroeste 4 Noroeste 0 -- -- 80
2020-03-26 23:00:00 14 4 Oeste 8 Norte 0 -- -- 77
2020-03-26 22:00:00 15.1 6 Noroeste 18 Noroeste 0 -- -- 74
2020-03-26 21:00:00 15.7 10 Noroeste 23 Noroeste 0 -- -- 71
2020-03-26 20:00:00 15.9 12 Noroeste 20 Noroeste 0 -- -- 69
2020-03-26 19:00:00 16.6 12 Noroeste 25 Noroeste 0 -- -- 64
2020-03-26 18:00:00 18.4 14 Noroeste 27 Noroeste 0 -- -- 55
2020-03-26 17:00:00 19.2 16 Noroeste 30 Noroeste 0 -- -- 52
2020-03-26 16:00:00 20.3 17 Noroeste 30 Oeste 0 -- -- 50
2020-03-26 15:00:00 20.2 16 Noroeste 31 Oeste 0 -- -- 49
2020-03-26 14:00:00 20.8 17 Noroeste 32 Oeste 0 -- -- 46
2020-03-26 13:00:00 19.7 15 Noroeste 28 Noroeste 0 -- -- 51
2020-03-26 12:00:00 19.1 13 Noroeste 26 Norte 0 -- -- 54
2020-03-26 11:00:00 18.7 12 Norte 22 Norte 0 -- -- 57
2020-03-26 10:00:00 16.1 10 Norte 21 Noroeste 0 -- -- 68
2020-03-26 09:00:00 15.8 6 Noroeste 12 Noroeste 0 -- -- 74
2020-03-26 08:00:00 12.3 0 Calma 4 Sudoeste 0 -- -- 85
2020-03-26 07:00:00 10.4 0 Calma 3 Sudoeste 0 -- -- 85
2020-03-26 06:00:00 10.9 0 Calma 4 Sudeste 0 -- -- 84
2020-03-26 05:00:00 11.6 2 Sur 8 Sur 0 -- -- 85
2020-03-26 04:00:00 11.6 0 Calma 4 Sudeste 0 -- -- 82
2020-03-26 03:00:00 12.1 0 Calma 6 Este 0 -- -- 81
2020-03-26 02:00:00 12.9 3 Este 16 Nordeste 0 -- -- 78
2020-03-26 01:00:00 13.4 5 Nordeste 14 Norte 0 -- -- 77
2020-03-26 00:00:00 14.2 6 Nordeste 15 Nordeste 0 -- -- 75
2020-03-25 23:00:00 14.7 8 Norte 15 Norte 0 -- -- 74
2020-03-25 22:00:00 14.8 7 Norte 15 Norte 0 -- -- 73
2020-03-25 21:00:00 15.2 6 Norte 20 Norte 0 -- -- 74
2020-03-25 20:00:00 15.6 9 Norte 24 Norte 0 -- -- 72
2020-03-25 19:00:00 16.8 12 Norte 25 Norte 0 -- -- 68
2020-03-25 18:00:00 18.4 13 Noroeste 27 Noroeste 0 -- -- 58
2020-03-25 17:00:00 19.2 12 Noroeste 31 Noroeste 0 -- -- 51
2020-03-25 16:00:00 20.6 14 Noroeste 30 Noroeste 0 -- -- 47
2020-03-25 15:00:00 20.6 11 Noroeste 26 Norte 0 -- -- 44
2020-03-25 14:00:00 20.2 12 Norte 28 Oeste 0 -- -- 48
2020-03-25 13:00:00 20.3 13 Norte 31 Noroeste 0 -- -- 45
2020-03-25 12:00:00 19.3 13 Noroeste 26 Noroeste 0 -- -- 46
2020-03-25 11:00:00 18.9 11 Noroeste 24 Norte 0 -- -- 48
2020-03-25 10:00:00 17.6 9 Norte 20 Noroeste 0 -- -- 57
2020-03-25 09:00:00 16.5 7 Nordeste 13 Norte 0 -- -- 66
2020-03-25 08:00:00 13.8 0 Calma 11 Norte 0 -- -- 78
2020-03-25 07:00:00 13.1 3 Nordeste 9 Nordeste 0 -- -- 80
2020-03-25 06:00:00 13.8 5 Norte 15 Nordeste 0 -- -- 79
2020-03-25 05:00:00 14.1 9 Norte 24 Norte 0 -- -- 79
2020-03-25 04:00:00 14.6 13 Norte 23 Norte 0 -- -- 78
2020-03-25 03:00:00 13.5 3 Noroeste 6 Noroeste 0 -- -- 81
2020-03-25 02:00:00 13.7 0 Calma 5 Noroeste 0 -- -- 82
2020-03-25 01:00:00 13.5 3 Oeste 12 Norte 0 -- -- 81
2020-03-25 00:00:00 14.3 5 Norte 13 Norte 0 -- -- 79
2020-03-24 23:00:00 14.6 6 Noroeste 15 Noroeste 0 -- -- 79
2020-03-24 22:00:00 14.9 9 Noroeste 24 Norte 0 -- -- 77
2020-03-24 21:00:00 15.6 15 Noroeste 27 Noroeste 0 -- -- 73
2020-03-24 20:00:00 15.7 15 Noroeste 34 Noroeste 0 -- -- 70
2020-03-24 19:00:00 16.4 21 Noroeste 39 Noroeste 0 -- -- 69
2020-03-24 18:00:00 17.6 22 Noroeste 40 Noroeste 0 -- -- 64
2020-03-24 17:00:00 18.1 24 Noroeste 42 Noroeste 0 -- -- 62
2020-03-24 16:00:00 18.6 21 Noroeste 40 Noroeste 0 -- -- 61
2020-03-24 15:00:00 18.9 25 Noroeste 43 Noroeste 0 -- -- 55
2020-03-24 14:00:00 19.5 23 Noroeste 43 Noroeste 0 -- -- 55
2020-03-24 13:00:00 19.5 23 Noroeste 45 Noroeste 0 -- -- 53
2020-03-24 12:00:00 18.8 23 Noroeste 42 Noroeste 0 -- -- 55
2020-03-24 11:00:00 17.8 21 Noroeste 38 Noroeste 0 -- -- 65
2020-03-24 10:00:00 17.2 16 Norte 38 Noroeste 0 -- -- 69
2020-03-24 09:00:00 16.1 13 Noroeste 32 Norte 0 -- -- 77
2020-03-24 08:00:00 14.7 14 Noroeste 23 Noroeste 0 -- -- 81
2020-03-24 07:00:00 13.5 8 Noroeste 14 Noroeste 0 -- -- 84
2020-03-24 06:00:00 13.2 7 Noroeste 14 Norte 0 -- -- 81
2020-03-24 05:00:00 13.1 7 Noroeste 15 Norte 0 -- -- 80
2020-03-24 04:00:00 13.5 7 Noroeste 20 Norte 0 -- -- 78
2020-03-24 03:00:00 13.8 8 Noroeste 22 Noroeste 0 -- -- 76
2020-03-24 02:00:00 14 10 Norte 22 Noroeste 0 -- -- 77
2020-03-24 01:00:00 14.1 11 Noroeste 27 Noroeste 0 -- -- 80
2020-03-24 00:00:00 14.3 10 Noroeste 27 Noroeste 0 -- -- 81
2020-03-23 23:00:00 14.5 12 Norte 30 Norte 0 -- -- 77
2020-03-23 22:00:00 14.7 14 Noroeste 30 Norte 0 -- -- 74
2020-03-23 21:00:00 14.2 12 Noroeste 31 Noroeste 0 -- -- 82
2020-03-23 20:00:00 15.3 15 Norte 35 Noroeste 0 -- -- 74
2020-03-23 19:00:00 15.7 16 Noroeste 36 Noroeste 0 -- -- 72
2020-03-23 18:00:00 16.2 17 Noroeste 35 Noroeste 0 -- -- 72
2020-03-23 17:00:00 17 20 Noroeste 39 Norte 0 -- -- 67
2020-03-23 16:00:00 17.2 21 Norte 44 Noroeste 0 -- -- 66
2020-03-23 15:00:00 17 23 Norte 41 Norte 0 -- -- 61
2020-03-23 14:00:00 16.9 22 Norte 39 Norte 0 -- -- 59
2020-03-23 13:00:00 16.7 22 Norte 42 Norte 0 -- -- 70
2020-03-23 12:00:00 16.2 17 Norte 36 Norte 0 -- -- 67
2020-03-23 11:00:00 15.8 14 Norte 31 Norte 0 -- -- 67
2020-03-23 10:00:00 15 9 Norte 19 Norte 0 -- -- 75
2020-03-23 09:00:00 13.7 6 Norte 18 Norte 0 -- -- 77
2020-03-23 08:00:00 12.1 2 Norte 8 Oeste 0 -- -- 86
2020-03-23 07:00:00 11.5 8 Oeste 17 Oeste 0 -- -- 86
2020-03-23 06:00:00 11.5 13 Noroeste 19 Oeste 0 -- -- 81
2020-03-23 05:00:00 11.5 13 Oeste 20 Oeste 0 -- -- 84
2020-03-23 04:00:00 11.3 11 Noroeste 39 Noroeste 0.8 -- -- 84
2020-03-23 03:00:00 11.9 17 Oeste 34 Oeste 0 -- -- 84
2020-03-23 02:00:00 12.8 23 Oeste 35 Oeste 0 -- -- 83
2020-03-23 01:00:00 13.1 22 Oeste 36 Oeste 2.8 -- -- 86
2020-03-23 00:00:00 13.7 16 Oeste 29 Oeste 0 -- -- 86
2020-03-22 23:00:00 13.3 15 Oeste 32 Oeste 0 -- -- 85
2020-03-22 22:00:00 12.8 14 Oeste 27 Sudoeste 0 -- -- 91
2020-03-22 21:00:00 13.2 19 Oeste 31 Sudoeste 2 -- -- 93
2020-03-22 20:00:00 13.9 22 Oeste 30 Oeste 0 -- -- 87
2020-03-22 19:00:00 14.2 20 Oeste 41 Noroeste 1 -- -- 91
2020-03-22 18:00:00 15.6 32 Oeste 47 Oeste 0.6 -- -- 86
2020-03-22 17:00:00 18.1 26 Oeste 42 Oeste 0 -- -- 60
2020-03-22 16:00:00 19 26 Oeste 39 Oeste 0 -- -- 54
2020-03-22 15:00:00 18.4 23 Oeste 41 Oeste 0 -- -- 58
2020-03-22 14:00:00 19.6 21 Oeste 35 Oeste 0 -- -- 51
2020-03-22 13:00:00 19.3 20 Oeste 33 Noroeste 0 -- -- 51
2020-03-22 12:00:00 19.2 20 Oeste 30 Oeste 0 -- -- 51
2020-03-22 11:00:00 18.5 17 Noroeste 33 Noroeste 0 -- -- 52
2020-03-22 10:00:00 17.1 14 Noroeste 25 Noroeste 0 -- -- 56
2020-03-22 09:00:00 15.3 14 Noroeste 24 Oeste 0 -- -- 66
2020-03-22 08:00:00 13.7 9 Noroeste 26 Noroeste 0 -- -- 73
2020-03-22 07:00:00 13.2 7 Noroeste 14 Noroeste 0 -- -- 74
2020-03-22 06:00:00 13.4 8 Noroeste 23 Norte 0 -- -- 70
2020-03-22 05:00:00 13.4 11 Norte 23 Norte 0 -- -- 74
2020-03-22 04:00:00 12.6 9 Noroeste 16 Noroeste 0 -- -- 72
2020-03-22 03:00:00 13.1 9 Noroeste 19 Noroeste 0 -- -- 66
2020-03-22 02:00:00 13.2 6 Noroeste 19 Norte 0 -- -- 68
2020-03-22 01:00:00 13.9 10 Noroeste 26 Norte 0 -- -- 65
2020-03-22 00:00:00 14.3 11 Norte 28 Norte 0 -- -- 64
2020-03-21 23:00:00 14.1 9 Noroeste 25 Noroeste 0 -- -- 65
2020-03-21 22:00:00 14.2 11 Noroeste 30 Norte 0 -- -- 63
2020-03-21 21:00:00 14.7 15 Norte 30 Norte 0 -- -- 62
2020-03-21 20:00:00 14.9 10 Norte 27 Norte 0 -- -- 65
2020-03-21 19:00:00 15.2 12 Norte 30 Norte 0 -- -- 60
2020-03-21 18:00:00 16 16 Norte 31 Norte 0 -- -- 58
2020-03-21 17:00:00 16.9 15 Norte 35 Norte 0 -- -- 53
2020-03-21 16:00:00 17 20 Noroeste 41 Noroeste 0 -- -- 52
2020-03-21 15:00:00 18.6 19 Noroeste 40 Noroeste 0 -- -- 42
2020-03-21 14:00:00 17.7 17 Norte 33 Norte 0 -- -- 44
2020-03-21 13:00:00 17.1 15 Norte 29 Norte 0 -- -- 51
2020-03-21 12:00:00 16.5 14 Norte 28 Norte 0 -- -- 54
2020-03-21 11:00:00 16.2 14 Norte 31 Norte 0 -- -- 50
2020-03-21 10:00:00 15.2 18 Norte 33 Norte 0 -- -- 56
2020-03-21 09:00:00 14.4 10 Norte 30 Norte 0 -- -- 67
2020-03-21 08:00:00 14.3 10 Norte 23 Norte 0 -- -- 60
2020-03-21 07:00:00 14.1 14 Norte 27 Norte 0 -- -- 58
2020-03-21 06:00:00 14 15 Norte 23 Nordeste 0 -- -- 65
2020-03-21 05:00:00 13.8 11 Nordeste 27 Norte 0 -- -- 61
2020-03-21 04:00:00 13.9 11 Norte 28 Norte 0 -- -- 63
2020-03-21 03:00:00 14.3 14 Norte 30 Nordeste 0 -- -- 64
2020-03-21 02:00:00 14.1 11 Norte 21 Norte 0 -- -- 77
2020-03-21 01:00:00 14.4 14 Norte 26 Norte 0 -- -- 78
2020-03-21 00:00:00 14.4 9 Norte 23 Norte 0 -- -- 81
2020-03-20 23:00:00 14.6 10 Norte 21 Nordeste 0 -- -- 83
2020-03-20 22:00:00 14.8 14 Norte 26 Nordeste 0 -- -- 81
2020-03-20 21:00:00 15.1 13 Norte 32 Norte 0 -- -- 82
2020-03-20 20:00:00 15 15 Norte 28 Norte 0 -- -- 87
2020-03-20 19:00:00 15.9 13 Norte 29 Norte 0.2 -- -- 83
2020-03-20 18:00:00 17.2 15 Norte 34 Noroeste 0 -- -- 66
2020-03-20 17:00:00 17.9 17 Norte 35 Noroeste 0 -- -- 61
2020-03-20 16:00:00 19.3 18 Norte 36 Norte 0 -- -- 56
2020-03-20 15:00:00 19.5 14 Noroeste 31 Noroeste 0 -- -- 59
2020-03-20 14:00:00 19.4 16 Noroeste 35 Noroeste 0 -- -- 57
2020-03-20 13:00:00 19 16 Norte 37 Noroeste 0 -- -- 58
2020-03-20 12:00:00 17.7 17 Norte 33 Norte 0 -- -- 68
2020-03-20 11:00:00 17.2 17 Norte 33 Noroeste 0 -- -- 74
2020-03-20 10:00:00 16.6 14 Norte 36 Norte 0 -- -- 78
2020-03-20 09:00:00 16.1 14 Norte 32 Norte 0 -- -- 81
2020-03-20 08:00:00 15.6 12 Norte 26 Norte 0 -- -- 85
2020-03-20 07:00:00 15.6 12 Norte 27 Noroeste 0 -- -- 85
2020-03-20 06:00:00 15.7 10 Norte 26 Noroeste 0 -- -- 86
2020-03-20 05:00:00 15.7 9 Norte 30 Noroeste 0 -- -- 86
2020-03-20 04:00:00 15.8 14 Norte 27 Noroeste 0 -- -- 87
2020-03-20 03:00:00 15.7 10 Norte 24 Noroeste 0 -- -- 86
2020-03-20 02:00:00 15.8 12 Norte 35 Norte 0 -- -- 86
2020-03-20 01:00:00 16 15 Norte 30 Noroeste 0 -- -- 85
2020-03-20 00:00:00 15.9 14 Noroeste 35 Noroeste 0 -- -- 85
2020-03-19 23:00:00 16.1 17 Noroeste 33 Norte 0 -- -- 84
2020-03-19 22:00:00 16.2 15 Noroeste 32 Norte 0 -- -- 84
2020-03-19 21:00:00 16.1 15 Noroeste 33 Noroeste 0 -- -- 84
2020-03-19 20:00:00 16.6 17 Norte 37 Noroeste 0 -- -- 83
2020-03-19 19:00:00 16.6 18 Norte 37 Noroeste 0 -- -- 81
2020-03-19 18:00:00 17.3 20 Noroeste 39 Noroeste 0 -- -- 77
2020-03-19 17:00:00 17.8 23 Noroeste 39 Noroeste 0 -- -- 76
2020-03-19 16:00:00 18.6 25 Noroeste 42 Noroeste 0 -- -- 68
2020-03-19 15:00:00 19.3 18 Norte 40 Noroeste 0 -- -- 61
2020-03-19 14:00:00 19.3 18 Noroeste 32 Noroeste 0 -- -- 59
2020-03-19 13:00:00 18.6 14 Norte 36 Noroeste 0 -- -- 64
2020-03-19 12:00:00 18.1 15 Norte 31 Norte 0 -- -- 60
2020-03-19 11:00:00 17.2 16 Norte 33 Norte 0 -- -- 67
2020-03-19 10:00:00 16.9 17 Norte 33 Norte 0 -- -- 70
2020-03-19 09:00:00 15.6 16 Norte 30 Nordeste 0 -- -- 78
2020-03-19 08:00:00 14.5 12 Norte 26 Norte 0 -- -- 84
2020-03-19 07:00:00 14.2 7 Norte 22 Noroeste 0 -- -- 92
2020-03-19 06:00:00 14.1 10 Norte 29 Noroeste 7.6 -- -- 93
2020-03-19 05:00:00 14.5 24 Noroeste 37 Noroeste 0 -- -- 88
2020-03-19 04:00:00 14.8 20 Noroeste 33 Noroeste 0 -- -- 81
2020-03-19 03:00:00 14.1 15 Noroeste 32 Noroeste 0 -- -- 75
2020-03-19 02:00:00 13.9 16 Noroeste 29 Noroeste 0 -- -- 72
2020-03-19 01:00:00 14.2 15 Noroeste 40 Norte 0 -- -- 74
2020-03-19 00:00:00 14.6 19 Noroeste 40 Noroeste 0 -- -- 77
2020-03-18 23:00:00 14.2 16 Noroeste 33 Noroeste 0 -- -- 80
2020-03-18 22:00:00 14.3 17 Noroeste 41 Noroeste 0.2 -- -- 87
2020-03-18 21:00:00 14.8 26 Noroeste 46 Noroeste 0.2 -- -- 83
2020-03-18 20:00:00 15.7 23 Noroeste 42 Noroeste 0 -- -- 66
2020-03-18 19:00:00 15.7 26 Noroeste 44 Noroeste 0 -- -- 66
2020-03-18 18:00:00 16.9 24 Noroeste 44 Noroeste 0 -- -- 60
2020-03-18 17:00:00 17.2 23 Noroeste 41 Noroeste 0 -- -- 61
2020-03-18 16:00:00 18.3 22 Noroeste 43 Noroeste 0 -- -- 54
2020-03-18 15:00:00 18.5 25 Noroeste 44 Noroeste 0 -- -- 53
2020-03-18 14:00:00 16.9 19 Noroeste 40 Noroeste 0.2 -- -- 64
2020-03-18 13:00:00 16.6 16 Norte 39 Noroeste 0 -- -- 62
2020-03-18 12:00:00 16.5 20 Noroeste 38 Noroeste 0 -- -- 66
2020-03-18 11:00:00 16.5 17 Noroeste 36 Norte 0 -- -- 64
2020-03-18 10:00:00 16.9 18 Noroeste 30 Noroeste 0 -- -- 59
2020-03-18 09:00:00 15.7 14 Norte 32 Norte 0 -- -- 64
2020-03-18 08:00:00 13.9 9 Norte 35 Noroeste 0 -- -- 81
2020-03-18 07:00:00 13.3 6 Noroeste 32 Norte 0 -- -- 83
2020-03-18 06:00:00 13.7 12 Noroeste 24 Noroeste 0 -- -- 76
2020-03-18 05:00:00 12.9 8 Noroeste 27 Oeste 0 -- -- 77
2020-03-18 04:00:00 12.5 8 Noroeste 26 Norte 0 -- -- 84
2020-03-18 03:00:00 13.6 15 Norte 29 Norte 0.2 -- -- 80
2020-03-18 02:00:00 14.3 12 Norte 25 Norte 0 -- -- 65
2020-03-18 01:00:00 14.3 13 Norte 29 Norte 0 -- -- 57
2020-03-18 00:00:00 14.1 15 Norte 32 Norte 0 -- -- 69
2020-03-17 23:00:00 14.1 15 Norte 30 Norte 0 -- -- 71
2020-03-17 22:00:00 14.4 15 Norte 42 Norte 0 -- -- 66
2020-03-17 21:00:00 14.4 13 Norte 34 Norte 0 -- -- 60
2020-03-17 20:00:00 14.4 19 Norte 37 Norte 0 -- -- 72
2020-03-17 19:00:00 15.1 18 Norte 39 Norte 0 -- -- 62
2020-03-17 18:00:00 16.1 18 Norte 39 Norte 0 -- -- 59
2020-03-17 17:00:00 16.3 19 Norte 42 Norte 0 -- -- 58
2020-03-17 16:00:00 17.8 18 Norte 41 Norte 0 -- -- 54
2020-03-17 15:00:00 18 19 Norte 40 Noroeste 0 -- -- 52
2020-03-17 14:00:00 17.4 19 Norte 40 Norte 0 -- -- 56
2020-03-17 13:00:00 17.8 19 Norte 41 Norte 0 -- -- 53
2020-03-17 12:00:00 16.2 22 Norte 38 Noroeste 0 -- -- 64
2020-03-17 11:00:00 15.7 20 Norte 36 Norte 0 -- -- 61
2020-03-17 10:00:00 14.7 15 Norte 36 Norte 0 -- -- 68
2020-03-17 09:00:00 14.6 17 Nordeste 40 Nordeste 0 -- -- 63
2020-03-17 08:00:00 13.7 21 Norte 32 Nordeste 0 -- -- 71
2020-03-17 07:00:00 12.6 13 Norte 36 Norte 0 -- -- 83
2020-03-17 06:00:00 13.4 12 Norte 36 Norte 0 -- -- 74
2020-03-17 05:00:00 14.2 20 Nordeste 36 Norte 0 -- -- 60
2020-03-17 04:00:00 14.1 19 Nordeste 38 Norte 0 -- -- 61
2020-03-17 03:00:00 14 16 Norte 37 Nordeste 0 -- -- 68
2020-03-17 02:00:00 14.1 20 Nordeste 36 Nordeste 0 -- -- 69
2020-03-17 01:00:00 14.1 19 Nordeste 37 Nordeste 0 -- -- 73
2020-03-17 00:00:00 14.7 23 Norte 42 Norte 0 -- -- 56
2020-03-16 23:00:00 14.7 21 Nordeste 39 Norte 0 -- -- 68
2020-03-16 22:00:00 15.2 20 Norte 44 Nordeste 0 -- -- 56
2020-03-16 21:00:00 15.3 21 Norte 41 Norte 0 -- -- 66
2020-03-16 20:00:00 15.8 20 Norte 43 Norte 0 -- -- 68
2020-03-16 19:00:00 16.1 22 Norte 41 Norte 0 -- -- 70
2020-03-16 18:00:00 17 20 Norte 40 Norte 0 -- -- 69
2020-03-16 17:00:00 18.4 23 Norte 44 Norte 0 -- -- 63
2020-03-16 16:00:00 19 24 Norte 45 Norte 0 -- -- 57
2020-03-16 15:00:00 19.6 22 Norte 43 Norte 0 -- -- 59
2020-03-16 14:00:00 19.5 21 Norte 42 Norte 0 -- -- 58
2020-03-16 13:00:00 18.9 24 Norte 41 Norte 0 -- -- 57
2020-03-16 12:00:00 18.5 20 Norte 37 Norte 0 -- -- 56
2020-03-16 11:00:00 17.5 19 Norte 38 Norte 0 -- -- 59
2020-03-16 10:00:00 17 19 Norte 40 Norte 0 -- -- 61
2020-03-16 09:00:00 15.8 23 Norte 43 Norte 0 -- -- 72
2020-03-16 08:00:00 15.5 18 Norte 38 Norte 0 -- -- 79
2020-03-16 07:00:00 15.3 15 Norte 34 Norte 0 -- -- 76
2020-03-16 06:00:00 15.4 13 Norte 33 Noroeste 0 -- -- 78
2020-03-16 05:00:00 15.3 14 Norte 34 Norte 0 -- -- 76
2020-03-16 04:00:00 15.4 17 Norte 32 Nordeste 0 -- -- 74
2020-03-16 03:00:00 15.2 13 Norte 30 Nordeste 0 -- -- 78
2020-03-16 02:00:00 15.2 16 Norte 32 Nordeste 0 -- -- 80
2020-03-16 01:00:00 15.5 13 Norte 28 Norte 0 -- -- 76
2020-03-16 00:00:00 15.7 12 Norte 30 Nordeste 0 -- -- 77
2020-03-15 23:00:00 15.5 15 Norte 31 Norte 0 -- -- 78
2020-03-15 22:00:00 15.4 14 Norte 31 Norte 0 -- -- 79
2020-03-15 21:00:00 15.7 14 Norte 29 Norte 0 -- -- 78
2020-03-15 20:00:00 16.1 13 Norte 30 Norte 0 -- -- 74
2020-03-15 19:00:00 16.7 14 Norte 31 Noroeste 0 -- -- 70
2020-03-15 18:00:00 17.5 19 Noroeste 40 Noroeste 0 -- -- 64
2020-03-15 17:00:00 18.4 17 Noroeste 35 Norte 0 -- -- 58
2020-03-15 16:00:00 19.3 19 Noroeste 39 Norte 0 -- -- 55
2020-03-15 15:00:00 19.7 20 Noroeste 36 Noroeste 0 -- -- 50
2020-03-15 14:00:00 19.7 19 Norte 35 Noroeste 0 -- -- 50
2020-03-15 13:00:00 19.4 18 Norte 33 Norte 0 -- -- 47
2020-03-15 12:00:00 18.7 17 Norte 30 Noroeste 0 -- -- 54
2020-03-15 11:00:00 17.3 17 Norte 37 Nordeste 0 -- -- 63
2020-03-15 10:00:00 16.7 15 Norte 29 Noroeste 0 -- -- 67
2020-03-15 09:00:00 16.6 11 Norte 23 Noroeste 0 -- -- 65
2020-03-15 08:00:00 15.1 13 Norte 22 Norte 0 -- -- 72
2020-03-15 07:00:00 15 12 Norte 24 Norte 0 -- -- 73
2020-03-15 06:00:00 14.9 12 Norte 23 Norte 0 -- -- 78
2020-03-15 05:00:00 14.5 7 Norte 14 Norte 0 -- -- 79
2020-03-15 04:00:00 14 4 Norte 12 Norte 0 -- -- 76
2020-03-15 03:00:00 14.3 7 Norte 14 Norte 0 -- -- 79
2020-03-15 02:00:00 14.4 5 Norte 13 Norte 0 -- -- 79
2020-03-15 01:00:00 14.6 9 Norte 18 Norte 0 -- -- 78
2020-03-15 00:00:00 14.8 10 Norte 23 Norte 0 -- -- 77
2020-03-14 23:00:00 15.3 12 Norte 20 Norte 0 -- -- 76
2020-03-14 22:00:00 14.9 8 Norte 20 Norte 0 -- -- 76
2020-03-14 21:00:00 15.2 12 Norte 23 Norte 0 -- -- 74
2020-03-14 20:00:00 15.5 10 Norte 25 Norte 0 -- -- 74
2020-03-14 19:00:00 16.2 12 Norte 26 Norte 0 -- -- 71
2020-03-14 18:00:00 17.5 13 Norte 26 Noroeste 0 -- -- 68
2020-03-14 17:00:00 17.8 15 Norte 27 Norte 0 -- -- 65
2020-03-14 16:00:00 18.5 13 Norte 26 Norte 0 -- -- 63
2020-03-14 15:00:00 18.8 15 Nordeste 31 Norte 0 -- -- 60
2020-03-14 14:00:00 19.5 16 Norte 30 Norte 0 -- -- 58
2020-03-14 13:00:00 20.2 15 Nordeste 32 Nordeste 0 -- -- 52
2020-03-14 12:00:00 19.5 14 Nordeste 34 Nordeste 0 -- -- 47
2020-03-14 11:00:00 18.4 18 Nordeste 33 Nordeste 0 -- -- 51
2020-03-14 10:00:00 17.1 19 Norte 32 Nordeste 0 -- -- 58
2020-03-14 09:00:00 16.2 16 Nordeste 28 Nordeste 0 -- -- 68
2020-03-14 08:00:00 14.2 7 Nordeste 18 Nordeste 0 -- -- 78
2020-03-14 07:00:00 14.2 11 Nordeste 17 Nordeste 0 -- -- 80
2020-03-14 06:00:00 14.5 10 Nordeste 19 Nordeste 0 -- -- 78
2020-03-14 05:00:00 12.9 2 Sudeste 8 Nordeste 0 -- -- 84
2020-03-14 04:00:00 13.6 3 Este 10 Nordeste 0 -- -- 82
2020-03-14 03:00:00 14.4 7 Nordeste 18 Nordeste 0 -- -- 81
2020-03-14 02:00:00 14.6 10 Nordeste 19 Nordeste 0 -- -- 81
2020-03-14 01:00:00 14.7 9 Nordeste 19 Nordeste 0 -- -- 79
2020-03-14 00:00:00 15.2 10 Nordeste 27 Nordeste 0 -- -- 76
2020-03-13 23:00:00 15.7 14 Nordeste 25 Norte 0 -- -- 75
2020-03-13 22:00:00 15.8 14 Nordeste 26 Nordeste 0 -- -- 75
2020-03-13 21:00:00 16.4 15 Nordeste 25 Nordeste 0 -- -- 74
2020-03-13 20:00:00 16.4 12 Norte 30 Norte 0 -- -- 75
2020-03-13 19:00:00 17 14 Norte 26 Norte 0 -- -- 72
2020-03-13 18:00:00 17.6 14 Norte 26 Norte 0 -- -- 70
2020-03-13 17:00:00 18.2 14 Nordeste 27 Este 0 -- -- 70
2020-03-13 16:00:00 18.9 13 Nordeste 27 Nordeste 0 -- -- 66
2020-03-13 15:00:00 19.1 13 Nordeste 27 Nordeste 0 -- -- 65
2020-03-13 14:00:00 19.1 17 Nordeste 30 Nordeste 0 -- -- 65
2020-03-13 13:00:00 20.1 17 Este 27 Este 0 -- -- 62
2020-03-13 12:00:00 19.6 14 Este 26 Este 0 -- -- 64
2020-03-13 11:00:00 19 13 Nordeste 23 Nordeste 0 -- -- 66
2020-03-13 10:00:00 17.9 11 Nordeste 24 Este 0 -- -- 70
2020-03-13 09:00:00 16.3 12 Nordeste 18 Nordeste 0 -- -- 79
2020-03-13 08:00:00 14.5 7 Nordeste 21 Nordeste 0 -- -- 88
2020-03-13 07:00:00 14 9 Nordeste 17 Este 0 -- -- 87
2020-03-13 06:00:00 14.7 10 Nordeste 24 Nordeste 0 -- -- 86
2020-03-13 05:00:00 15 14 Nordeste 26 Nordeste 0 -- -- 86
2020-03-13 04:00:00 15.2 19 Nordeste 28 Nordeste 0 -- -- 87
2020-03-13 03:00:00 15.4 19 Este 31 Este 0 -- -- 88
2020-03-13 02:00:00 15.5 17 Este 27 Este 0 -- -- 88
2020-03-13 01:00:00 15.6 15 Este 24 Este 0 -- -- 89
2020-03-13 00:00:00 15.9 17 Este 31 Este 0 -- -- 91
2020-03-12 23:00:00 16.3 13 Este 21 Este 0 -- -- 89
2020-03-12 22:00:00 16.4 12 Este 21 Este 0 -- -- 88
2020-03-12 21:00:00 16.8 14 Este 22 Este 0 -- -- 87
2020-03-12 20:00:00 17.5 15 Este 23 Este 0 -- -- 83
2020-03-12 19:00:00 19.4 12 Este 18 Este 0 -- -- 70
2020-03-12 18:00:00 21.8 12 Nordeste 23 Sudeste 0 -- -- 55
2020-03-12 17:00:00 22.7 14 Este 28 Este 0 -- -- 55
2020-03-12 16:00:00 23.3 19 Este 29 Este 0 -- -- 53
2020-03-12 15:00:00 24.5 18 Este 27 Este 0 -- -- 47
2020-03-12 14:00:00 25.3 16 Este 30 Este 0 -- -- 43
2020-03-12 13:00:00 24.7 20 Este 30 Este 0 -- -- 42
2020-03-12 12:00:00 23.8 16 Este 25 Este 0 -- -- 38
2020-03-12 11:00:00 22.9 14 Este 27 Este 0 -- -- 41
2020-03-12 10:00:00 21.8 17 Este 27 Sudeste 0 -- -- 41
2020-03-12 09:00:00 19.8 18 Este 28 Este 0 -- -- 52
2020-03-12 08:00:00 16.1 18 Este 31 Este 0 -- -- 81
2020-03-12 07:00:00 16 17 Este 29 Este 0 -- -- 77
2020-03-12 06:00:00 15.4 10 Este 28 Este 0 -- -- 92
2020-03-12 05:00:00 15.7 21 Este 31 Este 0 -- -- 90
2020-03-12 04:00:00 15.8 24 Este 36 Este 0 -- -- 90
2020-03-12 03:00:00 15.8 21 Este 32 Este 0 -- -- 91
2020-03-12 02:00:00 16.3 13 Este 28 Este 0 -- -- 87
2020-03-12 01:00:00 16.9 17 Este 26 Este 0 -- -- 77
2020-03-12 00:00:00 16.6 8 Este 21 Este 0 -- -- 90
2020-03-11 23:00:00 17 10 Este 17 Este 0 -- -- 88
2020-03-11 22:00:00 18.8 3 Sudeste 6 Este 0 -- -- 48
2020-03-11 21:00:00 18.8 3 Sudeste 9 Este 0 -- -- 62
2020-03-11 20:00:00 19.9 5 Este 8 Este 0 -- -- 62
2020-03-11 19:00:00 21.7 6 Noroeste 10 Noroeste 0 -- -- 55
2020-03-11 18:00:00 24 7 Noroeste 11 Oeste 0 -- -- 54
2020-03-11 17:00:00 25 9 Noroeste 15 Noroeste 0 -- -- 50
2020-03-11 16:00:00 27 10 Oeste 15 Oeste 0 -- -- 34
2020-03-11 15:00:00 27.8 10 Oeste 39 Sudeste 0 -- -- 29
2020-03-11 14:00:00 25 23 Este 37 Este 0 -- -- 49
2020-03-11 13:00:00 23.5 20 Este 30 Este 0 -- -- 51
2020-03-11 12:00:00 22.6 21 Este 32 Este 0 -- -- 54
2020-03-11 11:00:00 21.9 18 Este 29 Este 0 -- -- 55
2020-03-11 10:00:00 18.2 13 Este 28 Este 0 -- -- 75
2020-03-11 09:00:00 16.1 21 Este 36 Este 0 -- -- 85
2020-03-11 08:00:00 14.9 24 Este 36 Este 0 -- -- 90
2020-03-11 07:00:00 14.6 23 Este 31 Este 0 -- -- 90
2020-03-11 06:00:00 14.4 15 Este 26 Este 0 -- -- 89
2020-03-11 05:00:00 14.8 16 Este 29 Este 0 -- -- 88
2020-03-11 04:00:00 14.7 19 Este 28 Este 0 -- -- 88
2020-03-11 03:00:00 14.8 18 Este 26 Este 0 -- -- 92
2020-03-11 02:00:00 14.4 16 Este 25 Este 0 -- -- 91
2020-03-11 01:00:00 14 6 Nordeste 9 Este 0 -- -- 89
2020-03-11 00:00:00 14.9 6 Este 14 Este 0 -- -- 89
2020-03-10 23:00:00 15.5 6 Este 19 Este 0 -- -- 87
2020-03-10 22:00:00 16.1 13 Este 20 Este 0 -- -- 87
2020-03-10 21:00:00 16.4 13 Este 19 Este 0 -- -- 87
2020-03-10 20:00:00 17.4 6 Este 15 Este 0 -- -- 78
2020-03-10 19:00:00 18.9 11 Nordeste 17 Nordeste 0 -- -- 73
2020-03-10 18:00:00 21.7 10 Nordeste 17 Este 0 -- -- 61
2020-03-10 17:00:00 22.6 8 Nordeste 19 Nordeste 0 -- -- 58
2020-03-10 16:00:00 22.6 13 Nordeste 24 Este 0 -- -- 53
2020-03-10 15:00:00 23.5 14 Nordeste 23 Este 0 -- -- 44
2020-03-10 14:00:00 23.4 13 Nordeste 21 Nordeste 0 -- -- 49
2020-03-10 13:00:00 21.8 12 Este 23 Sudeste 0 -- -- 57
2020-03-10 12:00:00 20.5 13 Este 28 Sudeste 0 -- -- 65
2020-03-10 11:00:00 20.1 18 Este 26 Este 0 -- -- 66
2020-03-10 10:00:00 19.1 12 Este 31 Este 0 -- -- 70
2020-03-10 09:00:00 17.2 20 Este 33 Este 0 -- -- 76
2020-03-10 08:00:00 14.9 20 Este 29 Este 0 -- -- 84
2020-03-10 07:00:00 14.5 19 Este 27 Este 0 -- -- 84
2020-03-10 06:00:00 15 16 Este 31 Este 0 -- -- 84
2020-03-10 05:00:00 15.3 16 Este 29 Este 0 -- -- 72
2020-03-10 04:00:00 15.6 20 Este 36 Nordeste 0 -- -- 69
2020-03-10 03:00:00 16 25 Este 33 Este 0 -- -- 60
2020-03-10 02:00:00 15.2 23 Este 42 Este 0 -- -- 81
2020-03-10 01:00:00 15.5 28 Nordeste 41 Este 0 -- -- 77
2020-03-10 00:00:00 15.7 19 Nordeste 32 Nordeste 0 -- -- 82
2020-03-09 23:00:00 16.2 22 Este 34 Sudeste 0 -- -- 78
2020-03-09 22:00:00 16.3 17 Este 29 Este 0 -- -- 79
2020-03-09 21:00:00 16.4 15 Este 25 Este 0 -- -- 77
2020-03-09 20:00:00 16.9 12 Este 28 Este 0 -- -- 77
2020-03-09 19:00:00 17.4 23 Este 37 Nordeste 0 -- -- 80
2020-03-09 18:00:00 20.1 18 Este 28 Este 0 -- -- 64
2020-03-09 17:00:00 21.3 15 Este 26 Este 0 -- -- 61
2020-03-09 16:00:00 22.9 16 Este 30 Este 0 -- -- 48
2020-03-09 15:00:00 23.4 17 Este 30 Este 0 -- -- 46
2020-03-09 14:00:00 23.4 17 Este 27 Este 0 -- -- 45
2020-03-09 13:00:00 23.7 18 Este 30 Este 0 -- -- 47
2020-03-09 12:00:00 22.3 19 Este 33 Este 0 -- -- 52
2020-03-09 11:00:00 21.2 22 Este 35 Este 0 -- -- 60
2020-03-09 10:00:00 19.8 18 Este 27 Este 0 -- -- 65
2020-03-09 09:00:00 17.5 15 Este 23 Este 0 -- -- 75
2020-03-09 08:00:00 15.7 19 Nordeste 27 Nordeste 0 -- -- 80
2020-03-09 07:00:00 14.9 11 Este 22 Nordeste 0 -- -- 84
2020-03-09 06:00:00 14.8 13 Este 20 Nordeste 0 -- -- 92
2020-03-09 05:00:00 15.1 14 Nordeste 27 Este 0 -- -- 91
2020-03-09 04:00:00 15.3 13 Este 37 Este 0 -- -- 89
2020-03-09 03:00:00 15.7 27 Este 45 Este 0 -- -- 86
2020-03-09 02:00:00 16.1 27 Este 45 Este 0 -- -- 85
2020-03-09 01:00:00 16.1 25 Este 45 Este 0 -- -- 88
2020-03-09 00:00:00 16 18 Este 28 Este 0 -- -- 88
2020-03-08 23:00:00 16.3 8 Este 20 Sudeste 0 -- -- 81
2020-03-08 22:00:00 16.7 9 Sudeste 19 Sudeste 0 -- -- 82
2020-03-08 21:00:00 17.7 11 Sudeste 17 Este 0 -- -- 77
2020-03-08 20:00:00 19.3 4 Este 9 Nordeste 0 -- -- 65
2020-03-08 19:00:00 20.9 4 Nordeste 18 Nordeste 0 -- -- 56
2020-03-08 18:00:00 23 10 Norte 17 Norte 0 -- -- 47
2020-03-08 17:00:00 24.3 9 Norte 17 Nordeste 0 -- -- 33
2020-03-08 16:00:00 23.4 9 Nordeste 21 Este 0 -- -- 45
2020-03-08 15:00:00 22.9 12 Este 24 Este 0 -- -- 48
2020-03-08 14:00:00 21.4 15 Este 34 Este 0 -- -- 57
2020-03-08 13:00:00 20.7 23 Este 40 Este 0 -- -- 64
2020-03-08 12:00:00 20 26 Este 43 Este 0 -- -- 69
2020-03-08 11:00:00 19.4 26 Este 42 Este 0 -- -- 74
2020-03-08 10:00:00 18.6 24 Este 36 Nordeste 0 -- -- 75
2020-03-08 09:00:00 16.8 19 Este 30 Este 0 -- -- 84
2020-03-08 08:00:00 15.6 14 Este 27 Este 0 -- -- 86
2020-03-08 07:00:00 15.5 17 Este 30 Este 0 -- -- 83
2020-03-08 06:00:00 15.4 15 Este 28 Este 0 -- -- 85
2020-03-08 05:00:00 15.4 16 Este 26 Este 0 -- -- 86
2020-03-08 04:00:00 15.6 18 Este 27 Este 0 -- -- 88
2020-03-08 03:00:00 15.5 16 Nordeste 31 Nordeste 0 -- -- 88
2020-03-08 02:00:00 15.7 19 Este 33 Este 0 -- -- 84
2020-03-08 01:00:00 15.7 23 Este 36 Nordeste 0 -- -- 85
2020-03-08 00:00:00 16.1 22 Este 35 Este 0 -- -- 78
2020-03-07 23:00:00 16.3 20 Este 37 Este 0 -- -- 72
2020-03-07 22:00:00 16 11 Este 24 Este 0 -- -- 75
2020-03-07 21:00:00 16.3 11 Este 22 Este 0 -- -- 77
2020-03-07 20:00:00 16.8 4 Este 13 Nordeste 0 -- -- 73
2020-03-07 19:00:00 17.6 8 Norte 23 Norte 0 -- -- 72
2020-03-07 18:00:00 18.8 17 Norte 29 Noroeste 0 -- -- 66
2020-03-07 17:00:00 19.9 14 Norte 27 Norte 0 -- -- 61
2020-03-07 16:00:00 20.9 14 Norte 26 Nordeste 0 -- -- 59
2020-03-07 15:00:00 20.9 14 Nordeste 30 Nordeste 0 -- -- 59
2020-03-07 14:00:00 19.9 17 Nordeste 35 Este 0 -- -- 60
2020-03-07 13:00:00 19.2 21 Nordeste 35 Este 0 -- -- 63
2020-03-07 12:00:00 19.4 22 Nordeste 35 Nordeste 0 -- -- 59
2020-03-07 11:00:00 18.7 19 Nordeste 34 Nordeste 0 -- -- 61
2020-03-07 10:00:00 17.3 20 Nordeste 36 Nordeste 0 -- -- 68
2020-03-07 09:00:00 16.2 10 Nordeste 17 Nordeste 0 -- -- 72
2020-03-07 08:00:00 14.2 14 Nordeste 22 Nordeste 0 -- -- 79
2020-03-07 07:00:00 14 15 Nordeste 29 Nordeste 0 -- -- 80
2020-03-07 06:00:00 13.7 13 Nordeste 20 Norte 0 -- -- 80
2020-03-07 05:00:00 13.9 7 Nordeste 27 Nordeste 0 -- -- 77
2020-03-07 04:00:00 14.3 12 Nordeste 34 Nordeste 0 -- -- 76
2020-03-07 03:00:00 14.1 15 Nordeste 25 Nordeste 0 -- -- 75
2020-03-07 02:00:00 13.9 10 Nordeste 24 Nordeste 0 -- -- 74
2020-03-07 01:00:00 14.5 12 Nordeste 32 Nordeste 0 -- -- 73
2020-03-07 00:00:00 14.6 17 Nordeste 31 Nordeste 0 -- -- 73
2020-03-06 23:00:00 14.6 11 Nordeste 32 Norte 0 -- -- 73
2020-03-06 22:00:00 14.8 17 Norte 32 Norte 0 -- -- 72
2020-03-06 21:00:00 15.1 16 Norte 32 Nordeste 0 -- -- 69
2020-03-06 20:00:00 15.6 19 Norte 36 Norte 0 -- -- 66
2020-03-06 19:00:00 16.6 22 Norte 40 Norte 0 -- -- 63
2020-03-06 18:00:00 18 22 Nordeste 40 Nordeste 0 -- -- 57
2020-03-06 17:00:00 19.3 23 Nordeste 45 Nordeste 0 -- -- 48
2020-03-06 16:00:00 19.8 30 Nordeste 47 Nordeste 0 -- -- 46
2020-03-06 15:00:00 19.9 26 Nordeste 47 Nordeste 0 -- -- 53
2020-03-06 14:00:00 19.5 25 Nordeste 47 Nordeste 0 -- -- 53
2020-03-06 13:00:00 19.5 30 Nordeste 50 Nordeste 0 -- -- 56
2020-03-06 12:00:00 19.1 30 Nordeste 53 Nordeste 0 -- -- 56
2020-03-06 11:00:00 17.8 31 Nordeste 50 Nordeste 0 -- -- 57
2020-03-06 10:00:00 15.9 28 Nordeste 48 Nordeste 0 -- -- 64
2020-03-06 09:00:00 15.3 20 Nordeste 39 Nordeste 0 -- -- 71
2020-03-06 08:00:00 14.6 22 Nordeste 37 Nordeste 0 -- -- 73
2020-03-06 07:00:00 14.5 18 Nordeste 40 Nordeste 0 -- -- 76
2020-03-06 06:00:00 14.8 20 Nordeste 30 Nordeste 0 -- -- 77
2020-03-06 05:00:00 15 17 Norte 31 Norte 0 -- -- 87
2020-03-06 04:00:00 15.2 14 Norte 27 Nordeste 0.2 -- -- 92
2020-03-06 03:00:00 15.5 17 Norte 35 Nordeste 0 -- -- 89
2020-03-06 02:00:00 16 14 Nordeste 32 Nordeste 0 -- -- 87
2020-03-06 01:00:00 17.1 14 Norte 30 Nordeste 0 -- -- 80
2020-03-06 00:00:00 17.2 21 Nordeste 35 Nordeste 0 -- -- 75
2020-03-05 23:00:00 17.1 21 Nordeste 41 Nordeste 0 -- -- 76
2020-03-05 22:00:00 17 22 Nordeste 41 Nordeste 0 -- -- 75
2020-03-05 21:00:00 16.7 21 Nordeste 38 Nordeste 0 -- -- 75
2020-03-05 20:00:00 16.6 16 Nordeste 28 Nordeste 0 -- -- 74
2020-03-05 19:00:00 17.4 18 Norte 27 Norte 0 -- -- 72
2020-03-05 18:00:00 18.6 16 Norte 32 Nordeste 0 -- -- 69
2020-03-05 17:00:00 18.6 21 Nordeste 31 Este 0 -- -- 71
2020-03-05 16:00:00 19.3 18 Nordeste 31 Nordeste 0 -- -- 68
2020-03-05 15:00:00 20 18 Nordeste 31 Nordeste 0 -- -- 64
2020-03-05 14:00:00 20.2 18 Nordeste 36 Nordeste 0 -- -- 63
2020-03-05 13:00:00 20.5 19 Nordeste 39 Nordeste 0 -- -- 59
2020-03-05 12:00:00 19.4 18 Nordeste 27 Nordeste 0 -- -- 65
2020-03-05 11:00:00 18.3 8 Norte 24 Norte 0 -- -- 68
2020-03-05 10:00:00 17 14 Nordeste 26 Nordeste 0 -- -- 75
2020-03-05 09:00:00 16.2 12 Nordeste 22 Nordeste 0 -- -- 81
2020-03-05 08:00:00 15.2 8 Nordeste 23 Norte 0 -- -- 85
2020-03-05 07:00:00 14.9 9 Norte 19 Norte 0 -- -- 88
2020-03-05 06:00:00 14.9 5 Nordeste 13 Este 0 -- -- 89
2020-03-05 05:00:00 14.6 6 Este 9 Este 0 -- -- 89
2020-03-05 04:00:00 15.2 4 Este 13 Nordeste 0 -- -- 88
2020-03-05 03:00:00 15.3 9 Nordeste 21 Este 0 -- -- 88
2020-03-05 02:00:00 15.4 13 Este 27 Este 0 -- -- 88
2020-03-05 01:00:00 15.8 10 Este 25 Este 0 -- -- 86
2020-03-05 00:00:00 15.8 6 Este 12 Noroeste 0 -- -- 87
2020-03-04 23:00:00 16.6 3 Norte 15 Nordeste 0 -- -- 88
2020-03-04 22:00:00 16.2 12 Este 25 Sudeste 0 -- -- 89
2020-03-04 21:00:00 16.5 14 Este 31 Este 0 -- -- 88
2020-03-04 20:00:00 17 18 Este 27 Este 0 -- -- 86
2020-03-04 19:00:00 18.4 18 Sudeste 26 Sudeste 0 -- -- 77
2020-03-04 18:00:00 22.9 11 Nordeste 17 Nordeste 0 -- -- 59
2020-03-04 17:00:00 23.8 8 Norte 24 Noroeste 0 -- -- 57
2020-03-04 16:00:00 24 5 Sudeste 23 Nordeste 0 -- -- 56
2020-03-04 15:00:00 23.7 14 Este 28 Este 0 -- -- 51
2020-03-04 14:00:00 23.4 17 Este 26 Este 0 -- -- 52
2020-03-04 13:00:00 24.9 10 Norte 23 Noroeste 0 -- -- 53
2020-03-04 12:00:00 24.9 10 Noroeste 17 Nordeste 0 -- -- 51
2020-03-04 11:00:00 23.7 11 Nordeste 19 Nordeste 0 -- -- 43
2020-03-04 10:00:00 21.4 9 Norte 26 Este 0 -- -- 54
2020-03-04 09:00:00 19.7 15 Este 27 Este 0 -- -- 47
2020-03-04 08:00:00 17.3 15 Este 26 Nordeste 0 -- -- 55
2020-03-04 07:00:00 16.5 17 Nordeste 27 Este 0 -- -- 63
2020-03-04 06:00:00 15.8 13 Nordeste 20 Este 0 -- -- 62
2020-03-04 05:00:00 15.7 8 Nordeste 23 Nordeste 0 -- -- 65
2020-03-04 04:00:00 16.4 16 Nordeste 29 Nordeste 0 -- -- 64
2020-03-04 03:00:00 16.3 23 Este 31 Este 0 -- -- 65
2020-03-04 02:00:00 16.3 17 Este 29 Este 0 -- -- 62
2020-03-04 01:00:00 15.8 14 Este 22 Este 0 -- -- 69
2020-03-04 00:00:00 15.2 10 Sudeste 15 Sudeste 0 -- -- 87
2020-03-03 23:00:00 15.6 7 Este 15 Nordeste 0 -- -- 87
2020-03-03 22:00:00 16 7 Norte 14 Norte 0 -- -- 87
2020-03-03 21:00:00 16.7 3 Norte 17 Nordeste 0 -- -- 82
2020-03-03 20:00:00 17.3 7 Este 20 Nordeste 0 -- -- 79
2020-03-03 19:00:00 18 14 Nordeste 25 Este 0 -- -- 77
2020-03-03 18:00:00 19.3 17 Nordeste 25 Nordeste 0 -- -- 72
2020-03-03 17:00:00 21.4 11 Nordeste 26 Oeste 0 -- -- 64
2020-03-03 16:00:00 21.8 8 Nordeste 24 Este 0 -- -- 60
2020-03-03 15:00:00 21.6 10 Nordeste 24 Nordeste 0 -- -- 63
2020-03-03 14:00:00 21.6 10 Nordeste 28 Nordeste 0 -- -- 63
2020-03-03 13:00:00 21 14 Nordeste 27 Nordeste 0 -- -- 65
2020-03-03 12:00:00 20.3 9 Nordeste 24 Norte 0 -- -- 68
2020-03-03 11:00:00 18.8 13 Nordeste 26 Este 0 -- -- 71
2020-03-03 10:00:00 17.3 15 Nordeste 27 Nordeste 0 -- -- 77
2020-03-03 09:00:00 16.2 12 Nordeste 22 Nordeste 0 -- -- 83
2020-03-03 08:00:00 15.4 11 Nordeste 24 Nordeste 0 -- -- 87
2020-03-03 07:00:00 15.1 13 Este 27 Este 0 -- -- 88
2020-03-03 06:00:00 13.6 11 Este 17 Este 0 -- -- 91
2020-03-03 05:00:00 13.5 2 Sudeste 6 Nordeste 0 -- -- 89
2020-03-03 04:00:00 14.2 3 Este 8 Nordeste 0 -- -- 89
2020-03-03 03:00:00 14.5 3 Nordeste 7 Norte 0 -- -- 90
2020-03-03 02:00:00 14.3 2 Nordeste 12 Nordeste 0 -- -- 88
2020-03-03 01:00:00 14.8 4 Nordeste 14 Nordeste 0 -- -- 87
2020-03-03 00:00:00 15.2 3 Nordeste 9 Nordeste 0 -- -- 87
2020-03-02 23:00:00 15.4 5 Nordeste 12 Norte 0 -- -- 85
2020-03-02 22:00:00 15.8 4 Nordeste 15 Norte 0 -- -- 82
2020-03-02 21:00:00 16.6 9 Nordeste 20 Nordeste 0 -- -- 73
2020-03-02 20:00:00 17.1 13 Nordeste 24 Norte 0 -- -- 73
2020-03-02 19:00:00 17.6 12 Norte 29 Norte 0 -- -- 77
2020-03-02 18:00:00 18.6 15 Norte 36 Norte 0 -- -- 72
2020-03-02 17:00:00 19.5 17 Norte 35 Norte 0 -- -- 69
2020-03-02 16:00:00 20.6 17 Norte 36 Norte 0 -- -- 63
2020-03-02 15:00:00 20.7 18 Norte 35 Norte 0 -- -- 59
2020-03-02 14:00:00 20.6 16 Norte 32 Norte 0 -- -- 62
2020-03-02 13:00:00 20.1 14 Norte 31 Norte 0 -- -- 64
2020-03-02 12:00:00 19.4 16 Norte 32 Norte 0 -- -- 68
2020-03-02 11:00:00 19.8 14 Norte 28 Noroeste 0 -- -- 68
2020-03-02 10:00:00 18.3 11 Norte 24 Nordeste 0 -- -- 72
2020-03-02 09:00:00 16.5 10 Norte 20 Norte 0 -- -- 84
2020-03-02 08:00:00 15.9 9 Norte 22 Nordeste 0 -- -- 87
2020-03-02 07:00:00 15.8 6 Norte 20 Norte 0 -- -- 87
2020-03-02 06:00:00 15.9 9 Norte 18 Norte 0 -- -- 88
2020-03-02 05:00:00 15.7 6 Norte 12 Norte 0 -- -- 89
2020-03-02 04:00:00 15.4 4 Noroeste 14 Norte 0 -- -- 89
2020-03-02 03:00:00 15.7 6 Norte 18 Norte 0 -- -- 89
2020-03-02 02:00:00 16 8 Norte 17 Norte 0 -- -- 87
2020-03-02 01:00:00 16.5 8 Norte 22 Norte 0 -- -- 85
2020-03-02 00:00:00 16.6 9 Norte 20 Norte 0 -- -- 86
2020-03-01 23:00:00 16.4 6 Norte 16 Norte 0 -- -- 86
2020-03-01 22:00:00 15.8 4 Norte 9 Nordeste 0 -- -- 81
2020-03-01 21:00:00 16.4 8 Nordeste 19 Nordeste 0 -- -- 77
2020-03-01 20:00:00 16.7 9 Norte 23 Norte 0 -- -- 76
2020-03-01 19:00:00 17.4 12 Norte 30 Norte 0 -- -- 79
2020-03-01 18:00:00 18.1 17 Norte 31 Norte 0 -- -- 70
2020-03-01 17:00:00 18.9 13 Norte 27 Norte 0 -- -- 70
2020-03-01 16:00:00 20.6 14 Norte 26 Norte 0 -- -- 62
2020-03-01 15:00:00 21.2 10 Nordeste 24 Norte 0 -- -- 59
2020-03-01 14:00:00 20.6 10 Nordeste 26 Nordeste 0 -- -- 61
2020-03-01 13:00:00 20.9 14 Nordeste 23 Nordeste 0 -- -- 58
2020-03-01 12:00:00 20 6 Norte 22 Nordeste 0 -- -- 61
2020-03-01 11:00:00 18.9 12 Nordeste 21 Nordeste 0 -- -- 64
2020-03-01 10:00:00 17.5 10 Este 21 Nordeste 0 -- -- 69
2020-03-01 09:00:00 16 10 Nordeste 17 Nordeste 0 -- -- 78
2020-03-01 08:00:00 14.6 2 Este 12 Noroeste 0 -- -- 84
2020-03-01 07:00:00 14.5 5 Norte 13 Nordeste 0 -- -- 85
2020-03-01 06:00:00 14.1 8 Norte 15 Nordeste 0 -- -- 86
2020-03-01 05:00:00 14.2 9 Norte 15 Norte 0 -- -- 85
2020-03-01 04:00:00 14.2 8 Norte 13 Norte 0 -- -- 85
2020-03-01 03:00:00 13.9 2 Norte 12 Norte 0 -- -- 85
2020-03-01 02:00:00 14.4 6 Norte 13 Noroeste 0 -- -- 85
2020-03-01 01:00:00 14.3 4 Norte 9 Noroeste 0 -- -- 85
2020-03-01 00:00:00 14.4 3 Nordeste 8 Este 0 -- -- 83
2020-02-29 23:00:00 14.9 8 Este 16 Nordeste 0 -- -- 81
2020-02-29 22:00:00 15.2 8 Este 12 Nordeste 0 -- -- 80
2020-02-29 21:00:00 15.7 7 Norte 17 Nordeste 0 -- -- 77
2020-02-29 20:00:00 16 9 Norte 23 Norte 0 -- -- 77
2020-02-29 19:00:00 16.9 11 Norte 22 Norte 0 -- -- 74
2020-02-29 18:00:00 18.1 12 Norte 24 Norte 0 -- -- 69
2020-02-29 17:00:00 18.9 12 Nordeste 25 Nordeste 0 -- -- 66
2020-02-29 16:00:00 19.6 15 Nordeste 25 Nordeste 0 -- -- 61
2020-02-29 15:00:00 19.8 13 Nordeste 27 Este 0 -- -- 60
2020-02-29 14:00:00 19.9 12 Nordeste 26 Este 0 -- -- 59
2020-02-29 13:00:00 19.5 12 Nordeste 28 Nordeste 0 -- -- 59
2020-02-29 12:00:00 18.7 15 Nordeste 26 Nordeste 0 -- -- 63
2020-02-29 11:00:00 18.1 16 Nordeste 26 Nordeste 0 -- -- 65
2020-02-29 10:00:00 17.2 14 Nordeste 26 Nordeste 0 -- -- 68
2020-02-29 09:00:00 15.5 10 Nordeste 17 Nordeste 0 -- -- 74
2020-02-29 08:00:00 13.9 3 Este 6 Nordeste 0 -- -- 81
2020-02-29 07:00:00 12.6 3 Este 4 Sudeste 0 -- -- 83
2020-02-29 06:00:00 13.3 3 Este 6 Norte 0 -- -- 81
2020-02-29 05:00:00 14.3 5 Nordeste 17 Nordeste 0 -- -- 78
2020-02-29 04:00:00 15.4 9 Norte 22 Noroeste 0 -- -- 76
2020-02-29 03:00:00 15.5 9 Norte 20 Noroeste 0 -- -- 76
2020-02-29 02:00:00 15.5 9 Norte 19 Norte 0 -- -- 76
2020-02-29 01:00:00 15.6 8 Norte 22 Noroeste 0 -- -- 76
2020-02-29 00:00:00 15.6 8 Noroeste 20 Noroeste 0 -- -- 78
2020-02-28 23:00:00 15 11 Noroeste 18 Noroeste 0 -- -- 79
2020-02-28 22:00:00 14.5 9 Noroeste 14 Noroeste 0 -- -- 80
2020-02-28 21:00:00 14.7 6 Oeste 16 Noroeste 0 -- -- 76
2020-02-28 20:00:00 15.8 8 Noroeste 18 Noroeste 0 -- -- 75
2020-02-28 19:00:00 16.8 10 Noroeste 20 Noroeste 0 -- -- 70
2020-02-28 18:00:00 19 12 Noroeste 23 Noroeste 0 -- -- 61
2020-02-28 17:00:00 20.1 13 Noroeste 23 Noroeste 0 -- -- 56
2020-02-28 16:00:00 20.5 15 Noroeste 24 Noroeste 0 -- -- 54
2020-02-28 15:00:00 20.8 13 Noroeste 27 Oeste 0 -- -- 54
2020-02-28 14:00:00 21.2 14 Noroeste 25 Oeste 0 -- -- 54
2020-02-28 13:00:00 20.8 13 Noroeste 23 Noroeste 0 -- -- 55
2020-02-28 12:00:00 20.2 13 Noroeste 22 Noroeste 0 -- -- 56
2020-02-28 11:00:00 18.2 7 Norte 22 Noroeste 0 -- -- 65
2020-02-28 10:00:00 16.8 6 Noroeste 14 Noroeste 0 -- -- 72
2020-02-28 09:00:00 14.8 0 Calma 6 Oeste 0 -- -- 83
2020-02-28 08:00:00 11.1 5 Oeste 6 Oeste 0 -- -- 92
2020-02-28 07:00:00 10.9 2 Sur 4 Sur 0 -- -- 87
2020-02-28 06:00:00 11.5 2 Sur 4 Sur 0 -- -- 89
2020-02-28 05:00:00 11.7 2 Oeste 4 Oeste 0 -- -- 88
2020-02-28 04:00:00 11.8 3 Sudoeste 4 Sudoeste 0 -- -- 87
2020-02-28 03:00:00 11.7 3 Sudoeste 5 Sudoeste 0 -- -- 87
2020-02-28 02:00:00 12 4 Sudoeste 5 Sudoeste 0 -- -- 84
2020-02-28 01:00:00 12.7 4 Oeste 9 Oeste 0 -- -- 85
2020-02-28 00:00:00 13.4 6 Oeste 12 Noroeste 0 -- -- 86